Impacts TAF Board INFO
FOR SITUATIONAL AWARENESS. NOT TO BE USED FOR FLIGHT PLANNING PURPOSES.
IDs:

KMIA - Miami Intl, FL, US

Issued at 0332 UTC 28 Jul 2017
Updated at 0431 UTC 28 Jul 2017
Potential Impact None Slight Moderate High
Time0353Z 28/05Z 28/06Z 28/07Z 28/08Z 28/09Z 28/10Z 28/11Z 28/12Z 28/13Z 28/14Z 28/15Z 28/16Z 28/17Z>>
Type OBS PRVL PRVL PRVL PRVL PRVL PRVL PRVL PRVL PRVL PRVL PRVL PRVL PRVL
VIS 10 >6 >6 >6 >6 >6 >6 >6 >6 >6 >6 >6 >6 >6
CIG 250 -- -- -- -- -- -- -- -- -- -- -- -- 60
Cover BKN SCT SCT SCT SCT SCT SCT SCT SCT SCT SCT SCT SCT BKN
FltCat VFR VFR VFR VFR VFR VFR VFR VFR VFR VFR VFR VFR VFR VFR
WX -- -- -- -- -- -- -- -- -- -- -- -- -- VCTS
WDir 120 VRB VRB VRB VRB VRB VRB VRB VRB VRB VRB VRB VRB 160
WSpd 5 3 3 3 3 3 3 3 3 3 3 3 3 10
WGst -- -- -- -- -- -- -- -- -- -- -- -- -- --

Raw TAF
KMIA 280332Z 2804/2824 VRB03KT P6SM FEW025 SCT035 SCT250
  FM281700 16010KT P6SM VCTS SCT030CB BKN060


Raw METAR
KMIA 280353Z 12005KT 10SM SCT023TCU BKN250 29/24 A3000 RMK AO2 SLP159 TCU N AND SW AND NW T02940239
KMIA 280253Z 00000KT 10SM FEW025 SCT035 BKN250 30/24 A3001 RMK AO2 SLP161 T03000239 53010
KMIA 280153Z 13008KT 10SM FEW030 BKN250 29/23 A2998 RMK AO2 SLP153 LTG DSNT E-SE CB DSNT E-SE T02940233

METAR Board
Radar Display
Forecast Discussion

FOR SITUATIONAL AWARENESS. NOT TO BE USED FOR FLIGHT PLANNING PURPOSES.